sensor_id;sensor_type;location;lat;lon;timestamp;P1;durP1;ratioP1;P2;durP2;ratioP2
15614;SDS011;7907;51.368;6.730;2023-04-07T02:36:38;6.57;;;2.13;;
15614;SDS011;7907;51.368;6.730;2023-04-07T02:39:41;3.70;;;1.80;;
15614;SDS011;7907;51.368;6.730;2023-04-07T02:42:26;2.03;;;1.17;;
15614;SDS011;7907;51.368;6.730;2023-04-07T02:45:09;2.20;;;2.00;;
15614;SDS011;7907;51.368;6.730;2023-04-07T02:48:02;4.90;;;2.67;;
15614;SDS011;7907;51.368;6.730;2023-04-07T02:50:37;1.92;;;1.75;;
15614;SDS011;7907;51.368;6.730;2023-04-07T02:56:12;11.70;;;3.33;;
15614;SDS011;7907;51.368;6.730;2023-04-07T02:59:07;4.32;;;2.42;;
15614;SDS011;7907;51.368;6.730;2023-04-07T03:01:53;6.70;;;2.13;;
15614;SDS011;7907;51.368;6.730;2023-04-07T03:04:27;4.80;;;2.17;;
15614;SDS011;7907;51.368;6.730;2023-04-07T03:07:06;18.48;;;3.42;;
15614;SDS011;7907;51.368;6.730;2023-04-07T03:09:35;7.03;;;2.60;;
15614;SDS011;7907;51.368;6.730;2023-04-07T03:12:08;4.25;;;2.55;;
15614;SDS011;7907;51.368;6.730;2023-04-07T03:14:36;3.58;;;2.72;;
15614;SDS011;7907;51.368;6.730;2023-04-07T03:17:22;3.85;;;2.13;;
15614;SDS011;7907;51.368;6.730;2023-04-07T03:20:04;6.35;;;3.42;;
15614;SDS011;7907;51.368;6.730;2023-04-07T03:23:35;1.33;;;0.60;;
15614;SDS011;7907;51.368;6.730;2023-04-07T03:25:42;2.75;;;1.67;;
15614;SDS011;7907;51.368;6.730;2023-04-07T03:31:04;3.30;;;1.85;;
15614;SDS011;7907;51.368;6.730;2023-04-07T03:33:33;2.58;;;2.38;;
15614;SDS011;7907;51.368;6.730;2023-04-07T03:36:01;5.13;;;2.30;;
15614;SDS011;7907;51.368;6.730;2023-04-07T03:38:32;6.57;;;1.83;;
15614;SDS011;7907;51.368;6.730;2023-04-07T03:41:30;2.35;;;1.25;;
15614;SDS011;7907;51.368;6.730;2023-04-07T03:46:39;2.28;;;1.63;;
15614;SDS011;7907;51.368;6.730;2023-04-07T03:49:07;2.45;;;1.92;;
15614;SDS011;7907;51.368;6.730;2023-04-07T03:51:43;6.45;;;3.40;;
15614;SDS011;7907;51.368;6.730;2023-04-07T03:54:52;2.00;;;1.73;;
15614;SDS011;7907;51.368;6.730;2023-04-07T03:57:21;15.57;;;3.53;;
15614;SDS011;7907;51.368;6.730;2023-04-07T04:00:00;2.13;;;1.95;;
15614;SDS011;7907;51.368;6.730;2023-04-07T04:02:34;4.60;;;2.97;;
15614;SDS011;7907;51.368;6.730;2023-04-07T04:05:04;8.10;;;2.55;;
15614;SDS011;7907;51.368;6.730;2023-04-07T04:07:36;6.78;;;2.67;;
15614;SDS011;7907;51.368;6.730;2023-04-07T04:13:07;2.15;;;1.88;;
15614;SDS011;7907;51.368;6.730;2023-04-07T04:18:47;5.57;;;2.33;;
15614;SDS011;7907;51.368;6.730;2023-04-07T04:21:18;3.87;;;2.07;;
15614;SDS011;7907;51.368;6.730;2023-04-07T04:23:50;4.10;;;2.00;;
15614;SDS011;7907;51.368;6.730;2023-04-07T04:26:47;4.60;;;2.17;;
15614;SDS011;7907;51.368;6.730;2023-04-07T04:29:17;2.30;;;2.10;;
15614;SDS011;7907;51.368;6.730;2023-04-07T04:31:59;4.05;;;2.20;;
15614;SDS011;7907;51.368;6.730;2023-04-07T04:34:29;4.10;;;2.17;;
15614;SDS011;7907;51.368;6.730;2023-04-07T04:37:04;0.47;;;0.47;;
15614;SDS011;7907;51.368;6.730;2023-04-07T04:39:31;2.38;;;1.52;;
15614;SDS011;7907;51.368;6.730;2023-04-07T04:42:01;9.60;;;2.30;;
15614;SDS011;7907;51.368;6.730;2023-04-07T04:44:29;3.65;;;1.90;;
15614;SDS011;7907;51.368;6.730;2023-04-07T04:47:16;3.55;;;1.80;;
15614;SDS011;7907;51.368;6.730;2023-04-07T04:49:47;10.90;;;3.53;;
15614;SDS011;7907;51.368;6.730;2023-04-07T04:52:42;10.65;;;2.63;;
15614;SDS011;7907;51.368;6.730;2023-04-07T04:55:29;3.33;;;2.50;;
15614;SDS011;7907;51.368;6.730;2023-04-07T04:58:30;4.05;;;3.03;;
15614;SDS011;7907;51.368;6.730;2023-04-07T05:01:01;6.68;;;2.50;;
15614;SDS011;7907;51.368;6.730;2023-04-07T05:03:49;14.80;;;2.70;;
15614;SDS011;7907;51.368;6.730;2023-04-07T05:06:18;4.07;;;2.47;;
15614;SDS011;7907;51.368;6.730;2023-04-07T05:08:51;3.38;;;2.83;;
15614;SDS011;7907;51.368;6.730;2023-04-07T05:11:29;3.53;;;2.42;;
15614;SDS011;7907;51.368;6.730;2023-04-07T05:14:13;5.55;;;2.83;;
15614;SDS011;7907;51.368;6.730;2023-04-07T05:17:15;2.55;;;1.58;;
15614;SDS011;7907;51.368;6.730;2023-04-07T05:19:48;4.88;;;2.50;;
15614;SDS011;7907;51.368;6.730;2023-04-07T05:22:20;3.08;;;1.65;;
15614;SDS011;7907;51.368;6.730;2023-04-07T05:24:58;5.13;;;1.58;;
15614;SDS011;7907;51.368;6.730;2023-04-07T05:27:44;6.72;;;1.98;;
15614;SDS011;7907;51.368;6.730;2023-04-07T05:30:18;2.05;;;1.55;;
15614;SDS011;7907;51.368;6.730;2023-04-07T05:32:45;2.28;;;1.17;;
15614;SDS011;7907;51.368;6.730;2023-04-07T05:35:18;2.37;;;1.67;;
15614;SDS011;7907;51.368;6.730;2023-04-07T05:37:48;3.35;;;2.35;;
15614;SDS011;7907;51.368;6.730;2023-04-07T05:40:45;3.47;;;1.75;;
15614;SDS011;7907;51.368;6.730;2023-04-07T05:43:15;1.38;;;0.88;;
15614;SDS011;7907;51.368;6.730;2023-04-07T05:45:43;1.75;;;1.08;;
15614;SDS011;7907;51.368;6.730;2023-04-07T05:48:13;2.70;;;1.35;;
15614;SDS011;7907;51.368;6.730;2023-04-07T05:54:06;2.25;;;1.20;;
15614;SDS011;7907;51.368;6.730;2023-04-07T05:56:50;2.60;;;2.15;;
15614;SDS011;7907;51.368;6.730;2023-04-07T05:59:30;1.38;;;1.23;;
15614;SDS011;7907;51.368;6.730;2023-04-07T06:01:57;3.72;;;2.00;;
15614;SDS011;7907;51.368;6.730;2023-04-07T06:04:25;2.10;;;1.45;;
15614;SDS011;7907;51.368;6.730;2023-04-07T06:07:10;3.72;;;2.17;;
15614;SDS011;7907;51.368;6.730;2023-04-07T06:09:46;2.40;;;1.33;;
15614;SDS011;7907;51.368;6.730;2023-04-07T06:12:15;2.30;;;1.55;;
15614;SDS011;7907;51.368;6.730;2023-04-07T06:18:24;1.10;;;0.95;;
15614;SDS011;7907;51.368;6.730;2023-04-07T06:20:54;3.33;;;2.50;;
15614;SDS011;7907;51.368;6.730;2023-04-07T06:23:26;3.08;;;1.48;;
15614;SDS011;7907;51.368;6.730;2023-04-07T06:26:15;2.00;;;1.40;;
15614;SDS011;7907;51.368;6.730;2023-04-07T06:28:50;1.42;;;1.17;;
15614;SDS011;7907;51.368;6.730;2023-04-07T06:31:33;1.95;;;1.48;;
15614;SDS011;7907;51.368;6.730;2023-04-07T06:34:26;1.95;;;1.77;;
15614;SDS011;7907;51.368;6.730;2023-04-07T06:37:02;1.45;;;1.02;;
15614;SDS011;7907;51.368;6.730;2023-04-07T06:39:42;2.60;;;1.20;;
15614;SDS011;7907;51.368;6.730;2023-04-07T06:42:28;1.60;;;1.25;;
15614;SDS011;7907;51.368;6.730;2023-04-07T06:45:11;1.77;;;1.35;;
15614;SDS011;7907;51.368;6.730;2023-04-07T06:47:53;0.50;;;0.50;;
15614;SDS011;7907;51.368;6.730;2023-04-07T06:50:21;1.98;;;1.30;;
15614;SDS011;7907;51.368;6.730;2023-04-07T06:53:08;0.60;;;0.55;;
15614;SDS011;7907;51.368;6.730;2023-04-07T07:02:23;1.30;;;1.23;;
15614;SDS011;7907;51.368;6.730;2023-04-07T07:04:56;1.70;;;0.98;;
15614;SDS011;7907;51.368;6.730;2023-04-07T07:07:25;3.80;;;2.20;;
15614;SDS011;7907;51.368;6.730;2023-04-07T07:09:53;5.65;;;1.83;;
15614;SDS011;7907;51.368;6.730;2023-04-07T07:12:20;1.50;;;1.40;;
15614;SDS011;7907;51.368;6.730;2023-04-07T07:14:50;2.92;;;1.52;;
15614;SDS011;7907;51.368;6.730;2023-04-07T07:17:18;2.72;;;1.88;;
15614;SDS011;7907;51.368;6.730;2023-04-07T07:19:46;2.08;;;1.30;;
15614;SDS011;7907;51.368;6.730;2023-04-07T07:22:13;2.15;;;0.98;;
15614;SDS011;7907;51.368;6.730;2023-04-07T07:24:41;2.35;;;1.50;;
15614;SDS011;7907;51.368;6.730;2023-04-07T07:27:20;2.40;;;2.20;;
15614;SDS011;7907;51.368;6.730;2023-04-07T07:30:07;5.45;;;2.10;;
15614;SDS011;7907;51.368;6.730;2023-04-07T07:32:51;2.75;;;1.98;;
15614;SDS011;7907;51.368;6.730;2023-04-07T07:35:42;1.50;;;1.40;;
15614;SDS011;7907;51.368;6.730;2023-04-07T07:41:32;2.22;;;1.50;;
15614;SDS011;7907;51.368;6.730;2023-04-07T07:47:23;2.03;;;1.83;;
15614;SDS011;7907;51.368;6.730;2023-04-07T07:50:21;4.60;;;2.08;;
15614;SDS011;7907;51.368;6.730;2023-04-07T07:59:36;3.08;;;1.83;;
15614;SDS011;7907;51.368;6.730;2023-04-07T08:09:00;4.53;;;1.85;;
15614;SDS011;7907;51.368;6.730;2023-04-07T08:11:46;2.30;;;1.48;;
15614;SDS011;7907;51.368;6.730;2023-04-07T08:20:14;2.83;;;2.15;;
15614;SDS011;7907;51.368;6.730;2023-04-07T08:22:45;0.80;;;0.77;;
15614;SDS011;7907;51.368;6.730;2023-04-07T08:25:39;1.60;;;1.15;;
15614;SDS011;7907;51.368;6.730;2023-04-07T08:28:06;2.85;;;2.10;;
15614;SDS011;7907;51.368;6.730;2023-04-07T08:30:36;2.60;;;1.90;;
15614;SDS011;7907;51.368;6.730;2023-04-07T08:41:16;7.88;;;2.42;;
15614;SDS011;7907;51.368;6.730;2023-04-07T08:43:57;3.63;;;1.70;;
15614;SDS011;7907;51.368;6.730;2023-04-07T08:46:33;6.32;;;1.35;;
15614;SDS011;7907;51.368;6.730;2023-04-07T08:49:13;2.63;;;1.88;;
15614;SDS011;7907;51.368;6.730;2023-04-07T08:51:45;3.17;;;1.40;;
15614;SDS011;7907;51.368;6.730;2023-04-07T08:57:09;2.70;;;2.03;;
15614;SDS011;7907;51.368;6.730;2023-04-07T08:59:46;4.95;;;2.40;;
15614;SDS011;7907;51.368;6.730;2023-04-07T09:02:32;5.05;;;1.40;;
15614;SDS011;7907;51.368;6.730;2023-04-07T09:09:10;2.17;;;1.70;;
15614;SDS011;7907;51.368;6.730;2023-04-07T09:11:50;3.97;;;2.13;;
15614;SDS011;7907;51.368;6.730;2023-04-07T09:14:21;2.72;;;2.03;;
15614;SDS011;7907;51.368;6.730;2023-04-07T09:16:53;0.90;;;0.80;;
15614;SDS011;7907;51.368;6.730;2023-04-07T09:19:25;1.70;;;1.27;;
15614;SDS011;7907;51.368;6.730;2023-04-07T09:21:55;4.05;;;1.95;;
15614;SDS011;7907;51.368;6.730;2023-04-07T09:24:28;2.38;;;2.10;;
15614;SDS011;7907;51.368;6.730;2023-04-07T09:27:12;0.98;;;0.90;;
15614;SDS011;7907;51.368;6.730;2023-04-07T09:29:41;3.53;;;1.77;;
15614;SDS011;7907;51.368;6.730;2023-04-07T09:32:10;3.45;;;2.33;;
15614;SDS011;7907;51.368;6.730;2023-04-07T09:34:39;1.48;;;1.02;;
15614;SDS011;7907;51.368;6.730;2023-04-07T09:37:10;2.70;;;1.77;;
15614;SDS011;7907;51.368;6.730;2023-04-07T09:39:51;1.40;;;1.30;;
15614;SDS011;7907;51.368;6.730;2023-04-07T09:42:21;3.40;;;1.30;;
15614;SDS011;7907;51.368;6.730;2023-04-07T09:44:52;2.03;;;1.23;;
15614;SDS011;7907;51.368;6.730;2023-04-07T09:47:25;7.25;;;2.72;;
15614;SDS011;7907;51.368;6.730;2023-04-07T09:50:02;5.05;;;2.50;;
15614;SDS011;7907;51.368;6.730;2023-04-07T09:52:47;5.78;;;2.58;;
15614;SDS011;7907;51.368;6.730;2023-04-07T09:55:19;2.73;;;2.30;;
15614;SDS011;7907;51.368;6.730;2023-04-07T09:57:53;1.95;;;1.27;;
15614;SDS011;7907;51.368;6.730;2023-04-07T10:00:30;2.40;;;1.60;;
15614;SDS011;7907;51.368;6.730;2023-04-07T10:03:05;4.95;;;2.40;;
15614;SDS011;7907;51.368;6.730;2023-04-07T10:05:54;4.30;;;2.38;;
15614;SDS011;7907;51.368;6.730;2023-04-07T10:08:28;3.38;;;1.13;;
15614;SDS011;7907;51.368;6.730;2023-04-07T10:11:00;1.60;;;1.50;;
15614;SDS011;7907;51.368;6.730;2023-04-07T10:13:35;1.52;;;0.73;;
15614;SDS011;7907;51.368;6.730;2023-04-07T10:16:07;1.45;;;1.02;;
15614;SDS011;7907;51.368;6.730;2023-04-07T10:18:38;1.42;;;0.80;;
15614;SDS011;7907;51.368;6.730;2023-04-07T10:21:08;7.13;;;1.52;;
15614;SDS011;7907;51.368;6.730;2023-04-07T10:23:44;3.05;;;1.50;;
15614;SDS011;7907;51.368;6.730;2023-04-07T10:26:24;7.45;;;2.08;;
15614;SDS011;7907;51.368;6.730;2023-04-07T10:29:09;3.08;;;1.40;;
15614;SDS011;7907;51.368;6.730;2023-04-07T10:31:47;1.15;;;1.05;;
15614;SDS011;7907;51.368;6.730;2023-04-07T10:37:38;2.10;;;1.23;;
15614;SDS011;7907;51.368;6.730;2023-04-07T10:42:56;2.80;;;1.90;;
15614;SDS011;7907;51.368;6.730;2023-04-07T10:45:55;2.88;;;1.45;;
15614;SDS011;7907;51.368;6.730;2023-04-07T10:48:27;0.32;;;0.32;;
15614;SDS011;7907;51.368;6.730;2023-04-07T10:51:14;1.80;;;1.67;;
15614;SDS011;7907;51.368;6.730;2023-04-07T10:57:11;0.22;;;0.22;;
15614;SDS011;7907;51.368;6.730;2023-04-07T11:02:53;1.27;;;1.17;;
15614;SDS011;7907;51.368;6.730;2023-04-07T11:05:21;0.50;;;0.50;;
15614;SDS011;7907;51.368;6.730;2023-04-07T11:08:06;1.73;;;0.98;;
15614;SDS011;7907;51.368;6.730;2023-04-07T11:10:33;2.75;;;1.60;;
15614;SDS011;7907;51.368;6.730;2023-04-07T11:13:07;1.23;;;1.17;;
15614;SDS011;7907;51.368;6.730;2023-04-07T11:15:45;0.75;;;0.75;;
15614;SDS011;7907;51.368;6.730;2023-04-07T11:18:19;4.25;;;2.63;;
15614;SDS011;7907;51.368;6.730;2023-04-07T11:20:51;2.95;;;2.17;;
15614;SDS011;7907;51.368;6.730;2023-04-07T11:23:21;1.10;;;1.00;;
15614;SDS011;7907;51.368;6.730;2023-04-07T11:25:58;0.83;;;0.80;;
15614;SDS011;7907;51.368;6.730;2023-04-07T11:28:27;0.50;;;0.50;;
15614;SDS011;7907;51.368;6.730;2023-04-07T11:30:55;0.90;;;0.90;;
15614;SDS011;7907;51.368;6.730;2023-04-07T11:33:28;1.20;;;0.83;;
15614;SDS011;7907;51.368;6.730;2023-04-07T11:36:00;1.50;;;1.10;;
15614;SDS011;7907;51.368;6.730;2023-04-07T11:38:34;1.10;;;1.02;;
15614;SDS011;7907;51.368;6.730;2023-04-07T11:41:08;1.45;;;1.25;;
15614;SDS011;7907;51.368;6.730;2023-04-07T11:43:37;1.55;;;0.82;;
15614;SDS011;7907;51.368;6.730;2023-04-07T11:46:09;1.85;;;1.42;;
15614;SDS011;7907;51.368;6.730;2023-04-07T11:48:39;1.52;;;1.42;;
15614;SDS011;7907;51.368;6.730;2023-04-07T11:51:22;1.00;;;0.60;;
15614;SDS011;7907;51.368;6.730;2023-04-07T11:53:55;3.47;;;1.50;;
15614;SDS011;7907;51.368;6.730;2023-04-07T11:56:25;3.10;;;2.00;;
15614;SDS011;7907;51.368;6.730;2023-04-07T11:58:54;2.13;;;1.40;;
15614;SDS011;7907;51.368;6.730;2023-04-07T12:01:22;1.52;;;1.23;;
15614;SDS011;7907;51.368;6.730;2023-04-07T12:04:10;2.35;;;1.25;;
15614;SDS011;7907;51.368;6.730;2023-04-07T12:06:41;1.67;;;1.57;;
15614;SDS011;7907;51.368;6.730;2023-04-07T12:09:25;2.47;;;1.33;;
15614;SDS011;7907;51.368;6.730;2023-04-07T12:11:54;1.90;;;1.10;;
15614;SDS011;7907;51.368;6.730;2023-04-07T12:14:22;2.65;;;1.50;;
15614;SDS011;7907;51.368;6.730;2023-04-07T12:16:50;5.40;;;1.80;;
15614;SDS011;7907;51.368;6.730;2023-04-07T12:19:22;0.70;;;0.70;;
15614;SDS011;7907;51.368;6.730;2023-04-07T12:21:51;1.98;;;0.85;;
15614;SDS011;7907;51.368;6.730;2023-04-07T12:24:18;0.63;;;0.63;;
15614;SDS011;7907;51.368;6.730;2023-04-07T12:26:47;4.25;;;1.42;;
15614;SDS011;7907;51.368;6.730;2023-04-07T12:29:15;0.47;;;0.45;;
15614;SDS011;7907;51.368;6.730;2023-04-07T12:31:44;2.63;;;0.68;;
15614;SDS011;7907;51.368;6.730;2023-04-07T12:34:12;0.25;;;0.25;;
15614;SDS011;7907;51.368;6.730;2023-04-07T12:36:42;1.27;;;1.20;;
15614;SDS011;7907;51.368;6.730;2023-04-07T12:39:10;1.13;;;1.02;;
15614;SDS011;7907;51.368;6.730;2023-04-07T12:42:18;2.17;;;1.20;;
15614;SDS011;7907;51.368;6.730;2023-04-07T12:45:03;3.42;;;1.13;;
15614;SDS011;7907;51.368;6.730;2023-04-07T12:47:31;0.70;;;0.60;;
15614;SDS011;7907;51.368;6.730;2023-04-07T12:50:01;1.48;;;1.08;;
15614;SDS011;7907;51.368;6.730;2023-04-07T12:52:47;1.42;;;1.13;;
15614;SDS011;7907;51.368;6.730;2023-04-07T12:55:17;1.23;;;1.10;;
15614;SDS011;7907;51.368;6.730;2023-04-07T12:57:46;2.88;;;1.58;;
15614;SDS011;7907;51.368;6.730;2023-04-07T13:00:25;0.93;;;0.68;;
15614;SDS011;7907;51.368;6.730;2023-04-07T13:02:59;3.28;;;1.27;;
15614;SDS011;7907;51.368;6.730;2023-04-07T13:05:51;0.50;;;0.50;;
15614;SDS011;7907;51.368;6.730;2023-04-07T13:08:33;1.60;;;1.40;;
15614;SDS011;7907;51.368;6.730;2023-04-07T13:13:40;1.60;;;1.37;;
15614;SDS011;7907;51.368;6.730;2023-04-07T13:14:21;1.77;;;1.67;;
15614;SDS011;7907;51.368;6.730;2023-04-07T13:16:53;0.88;;;0.88;;
15614;SDS011;7907;51.368;6.730;2023-04-07T13:19:20;3.45;;;2.40;;
15614;SDS011;7907;51.368;6.730;2023-04-07T13:21:48;1.35;;;1.05;;
15614;SDS011;7907;51.368;6.730;2023-04-07T13:24:19;5.80;;;2.42;;
15614;SDS011;7907;51.368;6.730;2023-04-07T13:26:47;6.10;;;0.60;;
15614;SDS011;7907;51.368;6.730;2023-04-07T13:29:36;1.58;;;1.13;;
15614;SDS011;7907;51.368;6.730;2023-04-07T13:32:08;0.70;;;0.50;;
15614;SDS011;7907;51.368;6.730;2023-04-07T13:34:39;6.18;;;1.55;;
15614;SDS011;7907;51.368;6.730;2023-04-07T13:37:07;4.13;;;1.92;;
15614;SDS011;7907;51.368;6.730;2023-04-07T13:39:41;2.03;;;1.33;;
15614;SDS011;7907;51.368;6.730;2023-04-07T13:42:15;5.00;;;1.70;;
15614;SDS011;7907;51.368;6.730;2023-04-07T13:44:48;0.93;;;0.73;;
15614;SDS011;7907;51.368;6.730;2023-04-07T13:47:16;1.15;;;0.82;;
15614;SDS011;7907;51.368;6.730;2023-04-07T13:49:45;3.90;;;1.00;;
15614;SDS011;7907;51.368;6.730;2023-04-07T13:52:13;4.15;;;2.20;;
15614;SDS011;7907;51.368;6.730;2023-04-07T13:54:44;4.25;;;2.25;;
15614;SDS011;7907;51.368;6.730;2023-04-07T13:57:17;6.40;;;2.35;;
15614;SDS011;7907;51.368;6.730;2023-04-07T13:59:45;1.92;;;1.80;;
15614;SDS011;7907;51.368;6.730;2023-04-07T14:02:16;2.03;;;1.25;;
15614;SDS011;7907;51.368;6.730;2023-04-07T14:04:59;1.35;;;1.00;;
15614;SDS011;7907;51.368;6.730;2023-04-07T14:07:28;1.95;;;1.45;;
15614;SDS011;7907;51.368;6.730;2023-04-07T14:10:00;6.65;;;1.27;;
15614;SDS011;7907;51.368;6.730;2023-04-07T14:12:35;2.90;;;2.30;;
15614;SDS011;7907;51.368;6.730;2023-04-07T14:15:03;1.35;;;1.02;;
15614;SDS011;7907;51.368;6.730;2023-04-07T14:17:34;1.60;;;1.40;;
15614;SDS011;7907;51.368;6.730;2023-04-07T14:20:02;11.07;;;3.67;;
15614;SDS011;7907;51.368;6.730;2023-04-07T14:22:30;0.85;;;0.60;;
15614;SDS011;7907;51.368;6.730;2023-04-07T14:25:02;3.20;;;2.45;;
15614;SDS011;7907;51.368;6.730;2023-04-07T14:27:30;0.63;;;0.63;;
15614;SDS011;7907;51.368;6.730;2023-04-07T14:29:57;1.15;;;0.60;;
15614;SDS011;7907;51.368;6.730;2023-04-07T14:32:25;1.13;;;1.02;;
15614;SDS011;7907;51.368;6.730;2023-04-07T14:34:53;2.30;;;1.40;;
15614;SDS011;7907;51.368;6.730;2023-04-07T14:37:23;1.67;;;1.27;;
15614;SDS011;7907;51.368;6.730;2023-04-07T14:40:06;2.67;;;1.20;;
15614;SDS011;7907;51.368;6.730;2023-04-07T14:42:44;2.33;;;1.50;;
15614;SDS011;7907;51.368;6.730;2023-04-07T14:45:11;5.00;;;0.60;;
15614;SDS011;7907;51.368;6.730;2023-04-07T14:47:39;0.90;;;0.80;;
15614;SDS011;7907;51.368;6.730;2023-04-07T14:50:06;3.35;;;1.50;;
15614;SDS011;7907;51.368;6.730;2023-04-07T14:52:34;3.65;;;1.17;;
15614;SDS011;7907;51.368;6.730;2023-04-07T14:58:02;1.92;;;1.25;;
15614;SDS011;7907;51.368;6.730;2023-04-07T15:00:30;1.30;;;1.13;;
15614;SDS011;7907;51.368;6.730;2023-04-07T15:02:58;1.30;;;0.93;;
15614;SDS011;7907;51.368;6.730;2023-04-07T15:05:28;2.55;;;1.60;;
15614;SDS011;7907;51.368;6.730;2023-04-07T15:08:00;0.60;;;0.55;;
15614;SDS011;7907;51.368;6.730;2023-04-07T15:10:30;1.67;;;1.15;;
15614;SDS011;7907;51.368;6.730;2023-04-07T15:13:05;2.40;;;1.00;;
15614;SDS011;7907;51.368;6.730;2023-04-07T15:15:41;2.03;;;1.35;;
15614;SDS011;7907;51.368;6.730;2023-04-07T15:18:08;1.83;;;1.13;;
15614;SDS011;7907;51.368;6.730;2023-04-07T15:20:42;2.38;;;1.83;;
15614;SDS011;7907;51.368;6.730;2023-04-07T15:23:17;2.78;;;2.25;;
15614;SDS011;7907;51.368;6.730;2023-04-07T15:25:46;1.95;;;1.60;;
15614;SDS011;7907;51.368;6.730;2023-04-07T15:28:22;1.58;;;1.48;;
15614;SDS011;7907;51.368;6.730;2023-04-07T15:30:50;3.20;;;1.60;;
15614;SDS011;7907;51.368;6.730;2023-04-07T15:33:18;1.92;;;1.70;;
15614;SDS011;7907;51.368;6.730;2023-04-07T15:35:47;5.90;;;1.60;;
15614;SDS011;7907;51.368;6.730;2023-04-07T15:38:18;3.28;;;1.90;;
15614;SDS011;7907;51.368;6.730;2023-04-07T15:40:46;1.20;;;0.90;;
15614;SDS011;7907;51.368;6.730;2023-04-07T15:43:24;1.30;;;1.02;;
15614;SDS011;7907;51.368;6.730;2023-04-07T15:45:56;2.17;;;1.33;;
15614;SDS011;7907;51.368;6.730;2023-04-07T15:48:26;1.40;;;1.30;;
15614;SDS011;7907;51.368;6.730;2023-04-07T15:50:57;1.70;;;1.60;;
15614;SDS011;7907;51.368;6.730;2023-04-07T15:53:24;0.88;;;0.82;;
15614;SDS011;7907;51.368;6.730;2023-04-07T15:58:36;3.72;;;2.28;;
15614;SDS011;7907;51.368;6.730;2023-04-07T16:01:03;2.75;;;1.55;;
15614;SDS011;7907;51.368;6.730;2023-04-07T16:03:45;1.50;;;1.10;;
15614;SDS011;7907;51.368;6.730;2023-04-07T16:06:16;2.00;;;0.98;;
15614;SDS011;7907;51.368;6.730;2023-04-07T16:08:44;3.67;;;1.63;;
15614;SDS011;7907;51.368;6.730;2023-04-07T16:11:12;2.28;;;1.38;;
15614;SDS011;7907;51.368;6.730;2023-04-07T16:13:42;2.50;;;1.30;;
15614;SDS011;7907;51.368;6.730;2023-04-07T16:16:09;1.97;;;1.50;;
15614;SDS011;7907;51.368;6.730;2023-04-07T16:18:37;1.95;;;1.67;;
15614;SDS011;7907;51.368;6.730;2023-04-07T16:21:09;5.93;;;2.65;;
15614;SDS011;7907;51.368;6.730;2023-04-07T16:23:52;1.17;;;1.08;;
15614;SDS011;7907;51.368;6.730;2023-04-07T16:26:20;3.40;;;1.92;;
15614;SDS011;7907;51.368;6.730;2023-04-07T16:28:50;3.25;;;2.47;;
15614;SDS011;7907;51.368;6.730;2023-04-07T16:31:18;2.30;;;1.88;;
15614;SDS011;7907;51.368;6.730;2023-04-07T16:34:08;4.30;;;1.90;;
15614;SDS011;7907;51.368;6.730;2023-04-07T16:36:36;6.82;;;1.92;;
15614;SDS011;7907;51.368;6.730;2023-04-07T16:39:07;2.65;;;1.98;;
15614;SDS011;7907;51.368;6.730;2023-04-07T16:41:35;2.50;;;1.75;;
15614;SDS011;7907;51.368;6.730;2023-04-07T16:44:08;1.90;;;1.52;;
15614;SDS011;7907;51.368;6.730;2023-04-07T16:46:39;2.50;;;1.65;;
15614;SDS011;7907;51.368;6.730;2023-04-07T16:49:10;6.18;;;1.98;;
15614;SDS011;7907;51.368;6.730;2023-04-07T16:51:56;3.08;;;2.08;;
15614;SDS011;7907;51.368;6.730;2023-04-07T16:54:36;3.22;;;2.30;;
15614;SDS011;7907;51.368;6.730;2023-04-07T16:57:04;1.30;;;1.20;;
15614;SDS011;7907;51.368;6.730;2023-04-07T16:59:36;1.88;;;1.77;;
15614;SDS011;7907;51.368;6.730;2023-04-07T17:02:20;1.63;;;1.17;;
15614;SDS011;7907;51.368;6.730;2023-04-07T17:04:55;2.53;;;2.33;;
15614;SDS011;7907;51.368;6.730;2023-04-07T17:07:25;13.77;;;1.63;;
15614;SDS011;7907;51.368;6.730;2023-04-07T17:09:56;1.80;;;1.67;;
15614;SDS011;7907;51.368;6.730;2023-04-07T17:12:35;2.80;;;1.93;;
15614;SDS011;7907;51.368;6.730;2023-04-07T17:15:10;5.07;;;1.20;;
15614;SDS011;7907;51.368;6.730;2023-04-07T17:17:46;5.00;;;2.70;;
15614;SDS011;7907;51.368;6.730;2023-04-07T17:20:14;5.45;;;2.92;;
15614;SDS011;7907;51.368;6.730;2023-04-07T17:22:45;4.82;;;1.70;;
15614;SDS011;7907;51.368;6.730;2023-04-07T17:25:13;1.40;;;1.30;;
15614;SDS011;7907;51.368;6.730;2023-04-07T17:27:46;3.70;;;2.25;;
15614;SDS011;7907;51.368;6.730;2023-04-07T17:30:18;3.33;;;2.30;;
15614;SDS011;7907;51.368;6.730;2023-04-07T17:32:48;1.95;;;1.33;;
15614;SDS011;7907;51.368;6.730;2023-04-07T17:35:17;2.95;;;2.17;;
15614;SDS011;7907;51.368;6.730;2023-04-07T17:37:49;2.92;;;1.83;;
15614;SDS011;7907;51.368;6.730;2023-04-07T17:40:17;2.65;;;1.45;;
15614;SDS011;7907;51.368;6.730;2023-04-07T17:42:57;3.72;;;1.70;;
15614;SDS011;7907;51.368;6.730;2023-04-07T17:45:34;1.88;;;1.70;;
15614;SDS011;7907;51.368;6.730;2023-04-07T17:48:02;4.07;;;1.88;;
15614;SDS011;7907;51.368;6.730;2023-04-07T17:50:38;7.65;;;5.28;;
15614;SDS011;7907;51.368;6.730;2023-04-07T17:53:07;4.05;;;2.42;;
15614;SDS011;7907;51.368;6.730;2023-04-07T17:55:35;3.92;;;2.20;;
15614;SDS011;7907;51.368;6.730;2023-04-07T17:58:04;6.78;;;3.67;;
15614;SDS011;7907;51.368;6.730;2023-04-07T18:04:03;2.25;;;2.05;;
15614;SDS011;7907;51.368;6.730;2023-04-07T18:06:31;2.85;;;2.63;;
15614;SDS011;7907;51.368;6.730;2023-04-07T18:09:05;1.75;;;1.02;;
15614;SDS011;7907;51.368;6.730;2023-04-07T18:11:37;1.98;;;1.77;;
15614;SDS011;7907;51.368;6.730;2023-04-07T18:14:07;2.22;;;1.55;;
15614;SDS011;7907;51.368;6.730;2023-04-07T18:16:40;4.85;;;2.92;;
15614;SDS011;7907;51.368;6.730;2023-04-07T18:19:10;4.55;;;2.72;;
15614;SDS011;7907;51.368;6.730;2023-04-07T18:21:38;12.35;;;7.82;;
15614;SDS011;7907;51.368;6.730;2023-04-07T18:24:05;23.30;;;9.57;;
15614;SDS011;7907;51.368;6.730;2023-04-07T18:26:34;6.53;;;2.97;;
15614;SDS011;7907;51.368;6.730;2023-04-07T18:29:04;10.25;;;5.53;;
15614;SDS011;7907;51.368;6.730;2023-04-07T18:31:32;9.02;;;4.75;;
15614;SDS011;7907;51.368;6.730;2023-04-07T18:34:17;16.98;;;7.38;;
15614;SDS011;7907;51.368;6.730;2023-04-07T18:37:07;8.27;;;4.28;;
15614;SDS011;7907;51.368;6.730;2023-04-07T18:39:35;18.48;;;10.13;;
15614;SDS011;7907;51.368;6.730;2023-04-07T18:42:02;10.93;;;6.97;;
15614;SDS011;7907;51.368;6.730;2023-04-07T18:44:30;4.90;;;4.40;;
15614;SDS011;7907;51.368;6.730;2023-04-07T18:46:57;10.50;;;6.57;;
15614;SDS011;7907;51.368;6.730;2023-04-07T18:49:40;11.07;;;5.63;;
15614;SDS011;7907;51.368;6.730;2023-04-07T18:52:09;9.13;;;5.55;;
15614;SDS011;7907;51.368;6.730;2023-04-07T18:54:38;5.28;;;2.10;;
15614;SDS011;7907;51.368;6.730;2023-04-07T18:57:22;4.72;;;2.22;;
15614;SDS011;7907;51.368;6.730;2023-04-07T19:02:35;3.37;;;3.07;;
15614;SDS011;7907;51.368;6.730;2023-04-07T19:03:38;6.68;;;5.00;;
15614;SDS011;7907;51.368;6.730;2023-04-07T19:06:14;4.05;;;3.38;;
15614;SDS011;7907;51.368;6.730;2023-04-07T19:08:46;6.25;;;3.55;;
15614;SDS011;7907;51.368;6.730;2023-04-07T19:11:21;4.68;;;3.17;;
15614;SDS011;7907;51.368;6.730;2023-04-07T19:13:48;3.17;;;2.60;;
15614;SDS011;7907;51.368;6.730;2023-04-07T19:16:16;6.30;;;4.05;;
15614;SDS011;7907;51.368;6.730;2023-04-07T19:18:44;4.18;;;2.28;;
15614;SDS011;7907;51.368;6.730;2023-04-07T19:21:12;5.20;;;2.65;;
15614;SDS011;7907;51.368;6.730;2023-04-07T19:24:04;6.38;;;2.33;;
15614;SDS011;7907;51.368;6.730;2023-04-07T19:26:47;5.60;;;1.80;;
15614;SDS011;7907;51.368;6.730;2023-04-07T19:29:16;7.35;;;2.55;;
15614;SDS011;7907;51.368;6.730;2023-04-07T19:31:44;3.20;;;2.92;;
15614;SDS011;7907;51.368;6.730;2023-04-07T19:34:12;4.55;;;2.45;;
15614;SDS011;7907;51.368;6.730;2023-04-07T19:36:45;4.57;;;2.08;;
15614;SDS011;7907;51.368;6.730;2023-04-07T19:39:20;3.83;;;2.75;;
15614;SDS011;7907;51.368;6.730;2023-04-07T19:41:49;2.97;;;2.35;;
15614;SDS011;7907;51.368;6.730;2023-04-07T19:44:24;5.82;;;3.03;;
15614;SDS011;7907;51.368;6.730;2023-04-07T19:47:19;3.75;;;2.60;;
15614;SDS011;7907;51.368;6.730;2023-04-07T19:50:45;3.13;;;1.75;;
15614;SDS011;7907;51.368;6.730;2023-04-07T19:53:28;3.42;;;2.47;;